Adkins, Texas
Current Conditions -  °F | °C
As of 11:58 AM on Sunday 25 Jan 2015 (Local Time) from KRND Reporting Station
Clear Clear  
Wind Chill: 18°   Ceiling: Unl
Heat Index: 18°   Visibility: 10mi
Dew Point:   Wind: 6mph
Humidity: 39%   Direction: 30°NNE
Pressure: 30.12"   Gusts: NA
Location:  29.39°N, 98.24°W
Report Text: KRND 251758Z AUTO 03005KT 10SM CLR 18/04 A3012 RMK AO2 SLP198 T01810039 10181 20032 52014 $
Loading
Personal Weather Stations






























Interactive Weather Map New forecast layout! Learn more

10-Day Weather Forecast

Advertisements
Track Severe Weather on mobile